sensor_id;sensor_type;location;lat;lon;timestamp;P1;durP1;ratioP1;P2;durP2;ratioP2
38162;SDS011;23977;53.078;18.248;2023-06-26T00:01:15;7.00;;;5.07;;
38162;SDS011;23977;53.078;18.248;2023-06-26T00:03:53;8.98;;;5.60;;
38162;SDS011;23977;53.078;18.248;2023-06-26T00:06:19;8.05;;;5.32;;
38162;SDS011;23977;53.078;18.248;2023-06-26T00:08:46;8.25;;;5.43;;
38162;SDS011;23977;53.078;18.248;2023-06-26T00:11:11;8.73;;;5.63;;
38162;SDS011;23977;53.078;18.248;2023-06-26T00:13:37;7.68;;;5.55;;
38162;SDS011;23977;53.078;18.248;2023-06-26T00:16:03;10.25;;;6.40;;
38162;SDS011;23977;53.078;18.248;2023-06-26T00:18:29;8.98;;;6.00;;
38162;SDS011;23977;53.078;18.248;2023-06-26T00:20:55;10.43;;;6.50;;
38162;SDS011;23977;53.078;18.248;2023-06-26T00:23:20;9.40;;;6.38;;
38162;SDS011;23977;53.078;18.248;2023-06-26T00:25:46;9.93;;;6.45;;
38162;SDS011;23977;53.078;18.248;2023-06-26T00:28:12;9.30;;;6.35;;
38162;SDS011;23977;53.078;18.248;2023-06-26T00:30:38;8.48;;;6.32;;
38162;SDS011;23977;53.078;18.248;2023-06-26T00:33:05;8.98;;;6.60;;
38162;SDS011;23977;53.078;18.248;2023-06-26T00:35:30;8.32;;;6.20;;
38162;SDS011;23977;53.078;18.248;2023-06-26T00:37:57;9.15;;;6.07;;
38162;SDS011;23977;53.078;18.248;2023-06-26T00:40:23;8.23;;;6.35;;
38162;SDS011;23977;53.078;18.248;2023-06-26T00:42:51;9.30;;;6.15;;
38162;SDS011;23977;53.078;18.248;2023-06-26T00:45:16;9.43;;;6.57;;
38162;SDS011;23977;53.078;18.248;2023-06-26T00:47:42;8.70;;;6.53;;
38162;SDS011;23977;53.078;18.248;2023-06-26T00:50:08;9.50;;;6.53;;
38162;SDS011;23977;53.078;18.248;2023-06-26T00:52:34;10.00;;;6.65;;
38162;SDS011;23977;53.078;18.248;2023-06-26T00:55:00;8.55;;;6.40;;
38162;SDS011;23977;53.078;18.248;2023-06-26T00:57:26;10.35;;;6.28;;
38162;SDS011;23977;53.078;18.248;2023-06-26T00:59:52;10.18;;;6.50;;
38162;SDS011;23977;53.078;18.248;2023-06-26T01:02:18;8.57;;;6.45;;
38162;SDS011;23977;53.078;18.248;2023-06-26T01:04:46;9.02;;;6.72;;
38162;SDS011;23977;53.078;18.248;2023-06-26T01:07:13;8.90;;;6.32;;
38162;SDS011;23977;53.078;18.248;2023-06-26T01:09:41;7.45;;;6.22;;
38162;SDS011;23977;53.078;18.248;2023-06-26T01:12:07;10.50;;;6.25;;
38162;SDS011;23977;53.078;18.248;2023-06-26T01:14:33;8.63;;;6.40;;
38162;SDS011;23977;53.078;18.248;2023-06-26T01:17:02;11.07;;;6.85;;
38162;SDS011;23977;53.078;18.248;2023-06-26T01:19:29;9.65;;;6.60;;
38162;SDS011;23977;53.078;18.248;2023-06-26T01:27:44;9.77;;;6.72;;
38162;SDS011;23977;53.078;18.248;2023-06-26T01:30:12;10.52;;;7.40;;
38162;SDS011;23977;53.078;18.248;2023-06-26T01:32:39;8.32;;;6.72;;
38162;SDS011;23977;53.078;18.248;2023-06-26T01:35:05;10.43;;;6.85;;
38162;SDS011;23977;53.078;18.248;2023-06-26T01:37:32;8.63;;;6.85;;
38162;SDS011;23977;53.078;18.248;2023-06-26T01:39:58;8.73;;;6.72;;
38162;SDS011;23977;53.078;18.248;2023-06-26T01:42:25;10.80;;;7.18;;
38162;SDS011;23977;53.078;18.248;2023-06-26T01:44:51;9.43;;;7.20;;
38162;SDS011;23977;53.078;18.248;2023-06-26T01:47:22;9.70;;;7.20;;
38162;SDS011;23977;53.078;18.248;2023-06-26T01:50:02;11.13;;;7.35;;
38162;SDS011;23977;53.078;18.248;2023-06-26T01:52:46;9.20;;;6.90;;
38162;SDS011;23977;53.078;18.248;2023-06-26T01:55:23;9.57;;;7.38;;
38162;SDS011;23977;53.078;18.248;2023-06-26T01:57:58;9.57;;;7.43;;
38162;SDS011;23977;53.078;18.248;2023-06-26T02:00:24;8.05;;;6.95;;
38162;SDS011;23977;53.078;18.248;2023-06-26T02:02:52;9.68;;;7.25;;
38162;SDS011;23977;53.078;18.248;2023-06-26T02:05:17;11.63;;;7.47;;
38162;SDS011;23977;53.078;18.248;2023-06-26T02:07:43;13.18;;;7.30;;
38162;SDS011;23977;53.078;18.248;2023-06-26T02:10:09;10.68;;;7.10;;
38162;SDS011;23977;53.078;18.248;2023-06-26T02:12:35;11.50;;;7.50;;
38162;SDS011;23977;53.078;18.248;2023-06-26T02:15:03;11.82;;;6.97;;
38162;SDS011;23977;53.078;18.248;2023-06-26T02:17:32;11.05;;;7.53;;
38162;SDS011;23977;53.078;18.248;2023-06-26T02:19:58;10.55;;;7.50;;
38162;SDS011;23977;53.078;18.248;2023-06-26T02:22:23;9.68;;;7.05;;
38162;SDS011;23977;53.078;18.248;2023-06-26T02:24:49;10.73;;;6.85;;
38162;SDS011;23977;53.078;18.248;2023-06-26T02:27:14;12.88;;;7.40;;
38162;SDS011;23977;53.078;18.248;2023-06-26T02:29:40;10.60;;;7.55;;
38162;SDS011;23977;53.078;18.248;2023-06-26T02:32:07;10.10;;;7.93;;
38162;SDS011;23977;53.078;18.248;2023-06-26T02:34:34;12.02;;;7.65;;
38162;SDS011;23977;53.078;18.248;2023-06-26T02:37:00;13.07;;;7.65;;
38162;SDS011;23977;53.078;18.248;2023-06-26T02:39:26;10.75;;;7.63;;
38162;SDS011;23977;53.078;18.248;2023-06-26T02:41:52;11.02;;;7.82;;
38162;SDS011;23977;53.078;18.248;2023-06-26T02:44:18;11.20;;;7.47;;
38162;SDS011;23977;53.078;18.248;2023-06-26T02:46:46;10.30;;;7.97;;
38162;SDS011;23977;53.078;18.248;2023-06-26T02:49:12;10.50;;;7.32;;
38162;SDS011;23977;53.078;18.248;2023-06-26T02:51:37;9.10;;;6.90;;
38162;SDS011;23977;53.078;18.248;2023-06-26T02:54:04;8.82;;;6.60;;
38162;SDS011;23977;53.078;18.248;2023-06-26T02:56:30;8.73;;;6.28;;
38162;SDS011;23977;53.078;18.248;2023-06-26T02:58:56;10.35;;;7.10;;
38162;SDS011;23977;53.078;18.248;2023-06-26T03:01:22;10.38;;;5.90;;
38162;SDS011;23977;53.078;18.248;2023-06-26T03:03:48;7.95;;;5.80;;
38162;SDS011;23977;53.078;18.248;2023-06-26T03:06:13;10.68;;;6.13;;
38162;SDS011;23977;53.078;18.248;2023-06-26T03:08:40;7.93;;;5.60;;
38162;SDS011;23977;53.078;18.248;2023-06-26T03:11:06;9.95;;;6.07;;
38162;SDS011;23977;53.078;18.248;2023-06-26T03:13:34;7.72;;;5.72;;
38162;SDS011;23977;53.078;18.248;2023-06-26T03:16:00;8.13;;;6.10;;
38162;SDS011;23977;53.078;18.248;2023-06-26T03:18:26;7.45;;;5.53;;
38162;SDS011;23977;53.078;18.248;2023-06-26T03:20:52;8.57;;;5.40;;
38162;SDS011;23977;53.078;18.248;2023-06-26T03:23:19;8.13;;;4.90;;
38162;SDS011;23977;53.078;18.248;2023-06-26T03:25:45;8.57;;;5.47;;
38162;SDS011;23977;53.078;18.248;2023-06-26T03:28:11;6.90;;;5.15;;
38162;SDS011;23977;53.078;18.248;2023-06-26T03:30:37;7.00;;;4.95;;
38162;SDS011;23977;53.078;18.248;2023-06-26T03:33:03;7.10;;;5.63;;
38162;SDS011;23977;53.078;18.248;2023-06-26T03:35:28;9.07;;;5.45;;
38162;SDS011;23977;53.078;18.248;2023-06-26T03:37:54;11.82;;;5.60;;
38162;SDS011;23977;53.078;18.248;2023-06-26T03:40:20;10.60;;;5.40;;
38162;SDS011;23977;53.078;18.248;2023-06-26T03:42:45;9.32;;;5.55;;
38162;SDS011;23977;53.078;18.248;2023-06-26T03:45:11;8.48;;;5.38;;
38162;SDS011;23977;53.078;18.248;2023-06-26T03:47:37;8.63;;;5.30;;
38162;SDS011;23977;53.078;18.248;2023-06-26T03:50:02;11.00;;;6.10;;
38162;SDS011;23977;53.078;18.248;2023-06-26T03:52:28;8.77;;;5.90;;
38162;SDS011;23977;53.078;18.248;2023-06-26T03:54:56;8.13;;;6.03;;
38162;SDS011;23977;53.078;18.248;2023-06-26T03:57:23;7.25;;;6.10;;
38162;SDS011;23977;53.078;18.248;2023-06-26T03:59:48;9.95;;;6.78;;
38162;SDS011;23977;53.078;18.248;2023-06-26T04:02:15;10.18;;;6.80;;
38162;SDS011;23977;53.078;18.248;2023-06-26T04:04:40;8.23;;;6.18;;
38162;SDS011;23977;53.078;18.248;2023-06-26T04:07:06;8.32;;;6.65;;
38162;SDS011;23977;53.078;18.248;2023-06-26T04:09:31;8.93;;;7.10;;
38162;SDS011;23977;53.078;18.248;2023-06-26T04:11:57;9.25;;;7.10;;
38162;SDS011;23977;53.078;18.248;2023-06-26T04:14:23;8.18;;;7.25;;
38162;SDS011;23977;53.078;18.248;2023-06-26T04:16:49;10.23;;;7.82;;
38162;SDS011;23977;53.078;18.248;2023-06-26T04:19:14;9.43;;;7.35;;
38162;SDS011;23977;53.078;18.248;2023-06-26T04:21:40;8.63;;;7.45;;
38162;SDS011;23977;53.078;18.248;2023-06-26T04:24:06;8.18;;;7.13;;
38162;SDS011;23977;53.078;18.248;2023-06-26T04:26:32;9.20;;;7.72;;
38162;SDS011;23977;53.078;18.248;2023-06-26T04:28:57;8.82;;;7.63;;
38162;SDS011;23977;53.078;18.248;2023-06-26T04:31:23;8.95;;;7.72;;
38162;SDS011;23977;53.078;18.248;2023-06-26T04:33:48;8.95;;;7.60;;
38162;SDS011;23977;53.078;18.248;2023-06-26T04:36:20;11.02;;;7.95;;
38162;SDS011;23977;53.078;18.248;2023-06-26T04:38:46;10.75;;;8.32;;
38162;SDS011;23977;53.078;18.248;2023-06-26T04:41:13;9.95;;;8.43;;
38162;SDS011;23977;53.078;18.248;2023-06-26T04:43:39;9.65;;;7.80;;
38162;SDS011;23977;53.078;18.248;2023-06-26T04:46:05;9.32;;;8.07;;
38162;SDS011;23977;53.078;18.248;2023-06-26T04:48:31;12.20;;;8.40;;
38162;SDS011;23977;53.078;18.248;2023-06-26T04:50:57;8.73;;;7.82;;
38162;SDS011;23977;53.078;18.248;2023-06-26T04:53:24;10.75;;;8.10;;
38162;SDS011;23977;53.078;18.248;2023-06-26T04:55:51;14.73;;;8.30;;
38162;SDS011;23977;53.078;18.248;2023-06-26T04:58:17;12.95;;;8.10;;
38162;SDS011;23977;53.078;18.248;2023-06-26T05:00:43;13.68;;;8.93;;
38162;SDS011;23977;53.078;18.248;2023-06-26T05:03:10;16.95;;;8.88;;
38162;SDS011;23977;53.078;18.248;2023-06-26T05:05:37;15.82;;;8.43;;
38162;SDS011;23977;53.078;18.248;2023-06-26T05:08:16;12.55;;;7.82;;
38162;SDS011;23977;53.078;18.248;2023-06-26T05:10:43;14.07;;;8.15;;
38162;SDS011;23977;53.078;18.248;2023-06-26T05:13:09;14.68;;;8.57;;
38162;SDS011;23977;53.078;18.248;2023-06-26T05:15:35;14.77;;;8.00;;
38162;SDS011;23977;53.078;18.248;2023-06-26T05:18:01;11.45;;;8.15;;
38162;SDS011;23977;53.078;18.248;2023-06-26T05:20:27;13.23;;;8.30;;
38162;SDS011;23977;53.078;18.248;2023-06-26T05:22:52;12.55;;;7.05;;
38162;SDS011;23977;53.078;18.248;2023-06-26T05:25:18;16.38;;;8.52;;
38162;SDS011;23977;53.078;18.248;2023-06-26T05:27:48;13.05;;;7.90;;
38162;SDS011;23977;53.078;18.248;2023-06-26T05:30:14;9.88;;;6.93;;
38162;SDS011;23977;53.078;18.248;2023-06-26T05:32:40;12.90;;;8.05;;
38162;SDS011;23977;53.078;18.248;2023-06-26T05:35:06;12.30;;;7.63;;
38162;SDS011;23977;53.078;18.248;2023-06-26T05:37:33;13.40;;;7.75;;
38162;SDS011;23977;53.078;18.248;2023-06-26T05:40:00;12.68;;;7.40;;
38162;SDS011;23977;53.078;18.248;2023-06-26T05:42:26;10.98;;;6.63;;
38162;SDS011;23977;53.078;18.248;2023-06-26T05:44:53;13.98;;;7.55;;
38162;SDS011;23977;53.078;18.248;2023-06-26T05:47:19;10.88;;;6.82;;
38162;SDS011;23977;53.078;18.248;2023-06-26T05:49:45;8.98;;;6.05;;
38162;SDS011;23977;53.078;18.248;2023-06-26T05:52:10;9.02;;;6.07;;
38162;SDS011;23977;53.078;18.248;2023-06-26T05:54:37;8.00;;;6.70;;
38162;SDS011;23977;53.078;18.248;2023-06-26T05:57:03;8.60;;;6.18;;
38162;SDS011;23977;53.078;18.248;2023-06-26T05:59:33;8.88;;;5.75;;
38162;SDS011;23977;53.078;18.248;2023-06-26T06:02:02;8.95;;;6.30;;
38162;SDS011;23977;53.078;18.248;2023-06-26T06:04:28;8.35;;;6.15;;
38162;SDS011;23977;53.078;18.248;2023-06-26T06:06:53;9.40;;;6.63;;
38162;SDS011;23977;53.078;18.248;2023-06-26T06:09:19;10.38;;;5.93;;
38162;SDS011;23977;53.078;18.248;2023-06-26T06:11:45;7.70;;;5.70;;
38162;SDS011;23977;53.078;18.248;2023-06-26T06:14:10;7.07;;;5.50;;
38162;SDS011;23977;53.078;18.248;2023-06-26T06:16:36;9.20;;;6.10;;
38162;SDS011;23977;53.078;18.248;2023-06-26T06:19:03;12.70;;;6.30;;
38162;SDS011;23977;53.078;18.248;2023-06-26T06:21:29;11.75;;;6.47;;
38162;SDS011;23977;53.078;18.248;2023-06-26T06:23:55;6.55;;;5.70;;
38162;SDS011;23977;53.078;18.248;2023-06-26T06:26:21;7.68;;;5.70;;
38162;SDS011;23977;53.078;18.248;2023-06-26T06:28:46;7.38;;;5.65;;
38162;SDS011;23977;53.078;18.248;2023-06-26T06:31:12;7.65;;;5.50;;
38162;SDS011;23977;53.078;18.248;2023-06-26T06:33:38;6.00;;;5.10;;
38162;SDS011;23977;53.078;18.248;2023-06-26T06:36:04;8.63;;;5.57;;
38162;SDS011;23977;53.078;18.248;2023-06-26T06:38:30;7.85;;;4.68;;
38162;SDS011;23977;53.078;18.248;2023-06-26T06:40:55;6.22;;;4.00;;
38162;SDS011;23977;53.078;18.248;2023-06-26T06:43:21;6.43;;;4.70;;
38162;SDS011;23977;53.078;18.248;2023-06-26T06:45:47;7.30;;;4.20;;
38162;SDS011;23977;53.078;18.248;2023-06-26T06:48:12;9.82;;;5.13;;
38162;SDS011;23977;53.078;18.248;2023-06-26T06:50:38;5.35;;;4.18;;
38162;SDS011;23977;53.078;18.248;2023-06-26T06:53:04;8.18;;;4.65;;
38162;SDS011;23977;53.078;18.248;2023-06-26T06:55:29;8.27;;;4.38;;
38162;SDS011;23977;53.078;18.248;2023-06-26T06:57:55;7.47;;;3.92;;
38162;SDS011;23977;53.078;18.248;2023-06-26T07:00:21;4.70;;;3.28;;
38162;SDS011;23977;53.078;18.248;2023-06-26T07:02:47;5.53;;;4.07;;
38162;SDS011;23977;53.078;18.248;2023-06-26T07:05:12;5.07;;;4.43;;
38162;SDS011;23977;53.078;18.248;2023-06-26T07:07:39;6.90;;;4.38;;
38162;SDS011;23977;53.078;18.248;2023-06-26T07:10:06;6.22;;;3.65;;
38162;SDS011;23977;53.078;18.248;2023-06-26T07:12:34;5.75;;;3.90;;
38162;SDS011;23977;53.078;18.248;2023-06-26T07:15:00;6.40;;;4.03;;
38162;SDS011;23977;53.078;18.248;2023-06-26T07:17:28;5.78;;;3.65;;
38162;SDS011;23977;53.078;18.248;2023-06-26T07:19:54;5.18;;;3.35;;
38162;SDS011;23977;53.078;18.248;2023-06-26T07:22:19;7.40;;;3.60;;
38162;SDS011;23977;53.078;18.248;2023-06-26T07:24:48;6.43;;;3.58;;
38162;SDS011;23977;53.078;18.248;2023-06-26T07:27:14;6.72;;;3.70;;
38162;SDS011;23977;53.078;18.248;2023-06-26T07:29:41;6.60;;;3.45;;
38162;SDS011;23977;53.078;18.248;2023-06-26T07:32:07;4.07;;;3.40;;
38162;SDS011;23977;53.078;18.248;2023-06-26T07:34:33;5.03;;;3.45;;
38162;SDS011;23977;53.078;18.248;2023-06-26T07:36:59;5.68;;;3.35;;
38162;SDS011;23977;53.078;18.248;2023-06-26T07:39:25;6.57;;;3.22;;
38162;SDS011;23977;53.078;18.248;2023-06-26T07:41:51;6.32;;;2.80;;
38162;SDS011;23977;53.078;18.248;2023-06-26T07:44:17;4.97;;;3.20;;
38162;SDS011;23977;53.078;18.248;2023-06-26T07:46:43;4.30;;;3.28;;
38162;SDS011;23977;53.078;18.248;2023-06-26T07:49:10;5.97;;;3.22;;
38162;SDS011;23977;53.078;18.248;2023-06-26T07:51:36;3.83;;;2.97;;
38162;SDS011;23977;53.078;18.248;2023-06-26T07:54:02;5.30;;;3.08;;
38162;SDS011;23977;53.078;18.248;2023-06-26T07:56:27;3.67;;;3.05;;
38162;SDS011;23977;53.078;18.248;2023-06-26T07:58:53;3.75;;;3.00;;
38162;SDS011;23977;53.078;18.248;2023-06-26T08:01:19;4.53;;;3.05;;
38162;SDS011;23977;53.078;18.248;2023-06-26T08:03:45;4.85;;;3.70;;
38162;SDS011;23977;53.078;18.248;2023-06-26T08:06:11;4.10;;;3.08;;
38162;SDS011;23977;53.078;18.248;2023-06-26T08:08:36;3.80;;;3.13;;
38162;SDS011;23977;53.078;18.248;2023-06-26T08:11:02;4.25;;;3.13;;
38162;SDS011;23977;53.078;18.248;2023-06-26T08:13:28;5.82;;;3.35;;
38162;SDS011;23977;53.078;18.248;2023-06-26T08:15:53;3.83;;;3.10;;
38162;SDS011;23977;53.078;18.248;2023-06-26T08:18:20;4.32;;;2.95;;
38162;SDS011;23977;53.078;18.248;2023-06-26T08:20:45;6.35;;;3.28;;
38162;SDS011;23977;53.078;18.248;2023-06-26T08:23:11;6.78;;;3.33;;
38162;SDS011;23977;53.078;18.248;2023-06-26T08:25:37;3.33;;;2.50;;
38162;SDS011;23977;53.078;18.248;2023-06-26T08:28:02;4.53;;;3.20;;
38162;SDS011;23977;53.078;18.248;2023-06-26T08:30:28;6.47;;;3.40;;
38162;SDS011;23977;53.078;18.248;2023-06-26T08:32:57;4.78;;;2.70;;
38162;SDS011;23977;53.078;18.248;2023-06-26T08:35:23;3.70;;;2.95;;
38162;SDS011;23977;53.078;18.248;2023-06-26T08:37:49;3.78;;;2.88;;
38162;SDS011;23977;53.078;18.248;2023-06-26T08:40:18;3.15;;;2.60;;
38162;SDS011;23977;53.078;18.248;2023-06-26T08:42:44;6.45;;;3.20;;
38162;SDS011;23977;53.078;18.248;2023-06-26T08:45:10;6.68;;;2.80;;
38162;SDS011;23977;53.078;18.248;2023-06-26T08:47:36;4.00;;;3.00;;
38162;SDS011;23977;53.078;18.248;2023-06-26T08:50:12;5.00;;;2.80;;
38162;SDS011;23977;53.078;18.248;2023-06-26T08:55:33;3.33;;;2.67;;
38162;SDS011;23977;53.078;18.248;2023-06-26T08:58:03;4.72;;;2.60;;
38162;SDS011;23977;53.078;18.248;2023-06-26T09:00:30;3.63;;;2.60;;
38162;SDS011;23977;53.078;18.248;2023-06-26T09:02:56;3.33;;;2.45;;
38162;SDS011;23977;53.078;18.248;2023-06-26T09:05:22;3.45;;;2.63;;
38162;SDS011;23977;53.078;18.248;2023-06-26T09:07:48;3.42;;;2.50;;
38162;SDS011;23977;53.078;18.248;2023-06-26T09:10:14;2.70;;;2.20;;
38162;SDS011;23977;53.078;18.248;2023-06-26T09:12:39;3.72;;;2.67;;
38162;SDS011;23977;53.078;18.248;2023-06-26T09:15:05;4.78;;;2.50;;
38162;SDS011;23977;53.078;18.248;2023-06-26T09:17:38;4.45;;;2.67;;
38162;SDS011;23977;53.078;18.248;2023-06-26T09:20:06;4.28;;;2.60;;
38162;SDS011;23977;53.078;18.248;2023-06-26T09:22:33;3.75;;;2.70;;
38162;SDS011;23977;53.078;18.248;2023-06-26T09:25:04;3.80;;;2.20;;
38162;SDS011;23977;53.078;18.248;2023-06-26T09:27:31;4.43;;;2.30;;
38162;SDS011;23977;53.078;18.248;2023-06-26T09:29:57;4.75;;;2.08;;
38162;SDS011;23977;53.078;18.248;2023-06-26T09:32:24;5.07;;;2.10;;
38162;SDS011;23977;53.078;18.248;2023-06-26T09:34:51;3.28;;;2.35;;
38162;SDS011;23977;53.078;18.248;2023-06-26T09:37:17;4.57;;;2.20;;
38162;SDS011;23977;53.078;18.248;2023-06-26T09:39:44;3.92;;;2.00;;
38162;SDS011;23977;53.078;18.248;2023-06-26T09:42:10;4.53;;;2.30;;
38162;SDS011;23977;53.078;18.248;2023-06-26T09:44:43;3.40;;;2.00;;
38162;SDS011;23977;53.078;18.248;2023-06-26T09:47:09;2.85;;;2.17;;
38162;SDS011;23977;53.078;18.248;2023-06-26T09:49:35;3.30;;;2.10;;
38162;SDS011;23977;53.078;18.248;2023-06-26T09:52:01;2.83;;;2.30;;
38162;SDS011;23977;53.078;18.248;2023-06-26T09:54:28;3.17;;;2.30;;
38162;SDS011;23977;53.078;18.248;2023-06-26T09:56:56;4.07;;;2.03;;
38162;SDS011;23977;53.078;18.248;2023-06-26T09:59:32;2.90;;;2.20;;
38162;SDS011;23977;53.078;18.248;2023-06-26T10:01:59;5.32;;;2.50;;
38162;SDS011;23977;53.078;18.248;2023-06-26T10:04:25;3.85;;;2.47;;
38162;SDS011;23977;53.078;18.248;2023-06-26T10:06:51;5.00;;;2.50;;
38162;SDS011;23977;53.078;18.248;2023-06-26T10:09:21;4.53;;;2.53;;
38162;SDS011;23977;53.078;18.248;2023-06-26T10:14:26;4.30;;;2.90;;
38162;SDS011;23977;53.078;18.248;2023-06-26T10:16:57;3.20;;;2.65;;
38162;SDS011;23977;53.078;18.248;2023-06-26T10:19:25;4.40;;;2.70;;
38162;SDS011;23977;53.078;18.248;2023-06-26T10:21:53;4.03;;;2.92;;
38162;SDS011;23977;53.078;18.248;2023-06-26T10:24:20;4.30;;;2.92;;
38162;SDS011;23977;53.078;18.248;2023-06-26T10:26:49;5.40;;;3.38;;
38162;SDS011;23977;53.078;18.248;2023-06-26T10:29:17;4.10;;;3.20;;
38162;SDS011;23977;53.078;18.248;2023-06-26T10:31:48;4.07;;;3.10;;
38162;SDS011;23977;53.078;18.248;2023-06-26T10:34:17;4.40;;;2.92;;
38162;SDS011;23977;53.078;18.248;2023-06-26T10:38:19;4.65;;;3.20;;
38162;SDS011;23977;53.078;18.248;2023-06-26T10:40:45;6.50;;;3.00;;
38162;SDS011;23977;53.078;18.248;2023-06-26T10:43:14;3.60;;;2.90;;
38162;SDS011;23977;53.078;18.248;2023-06-26T10:45:50;5.18;;;3.20;;
38162;SDS011;23977;53.078;18.248;2023-06-26T10:48:20;4.80;;;3.33;;
38162;SDS011;23977;53.078;18.248;2023-06-26T10:50:48;5.22;;;3.38;;
38162;SDS011;23977;53.078;18.248;2023-06-26T10:55:50;4.55;;;3.38;;
38162;SDS011;23977;53.078;18.248;2023-06-26T10:58:32;4.30;;;3.65;;
38162;SDS011;23977;53.078;18.248;2023-06-26T11:04:00;5.40;;;3.70;;
38162;SDS011;23977;53.078;18.248;2023-06-26T11:06:45;4.32;;;3.50;;
38162;SDS011;23977;53.078;18.248;2023-06-26T11:09:13;5.00;;;3.60;;
38162;SDS011;23977;53.078;18.248;2023-06-26T11:14:23;4.97;;;3.72;;
38162;SDS011;23977;53.078;18.248;2023-06-26T11:16:51;6.35;;;3.83;;
38162;SDS011;23977;53.078;18.248;2023-06-26T11:19:17;4.80;;;3.90;;
38162;SDS011;23977;53.078;18.248;2023-06-26T11:21:44;6.40;;;4.25;;
38162;SDS011;23977;53.078;18.248;2023-06-26T11:24:10;5.38;;;3.88;;
38162;SDS011;23977;53.078;18.248;2023-06-26T11:26:37;4.30;;;3.78;;
38162;SDS011;23977;53.078;18.248;2023-06-26T11:29:04;6.22;;;3.97;;
38162;SDS011;23977;53.078;18.248;2023-06-26T11:31:34;5.25;;;4.00;;
38162;SDS011;23977;53.078;18.248;2023-06-26T11:34:02;6.45;;;4.03;;
38162;SDS011;23977;53.078;18.248;2023-06-26T11:36:30;5.28;;;3.90;;
38162;SDS011;23977;53.078;18.248;2023-06-26T11:39:00;4.88;;;3.90;;
38162;SDS011;23977;53.078;18.248;2023-06-26T11:41:29;5.07;;;3.92;;
38162;SDS011;23977;53.078;18.248;2023-06-26T11:44:02;5.10;;;3.92;;
38162;SDS011;23977;53.078;18.248;2023-06-26T11:46:29;5.30;;;4.18;;
38162;SDS011;23977;53.078;18.248;2023-06-26T11:48:55;4.95;;;4.03;;
38162;SDS011;23977;53.078;18.248;2023-06-26T11:51:21;4.63;;;4.10;;
38162;SDS011;23977;53.078;18.248;2023-06-26T11:53:47;5.03;;;4.35;;
38162;SDS011;23977;53.078;18.248;2023-06-26T11:56:15;6.50;;;4.38;;
38162;SDS011;23977;53.078;18.248;2023-06-26T12:01:34;4.50;;;3.92;;
38162;SDS011;23977;53.078;18.248;2023-06-26T12:04:03;5.18;;;4.10;;
38162;SDS011;23977;53.078;18.248;2023-06-26T12:06:31;6.05;;;3.88;;
38162;SDS011;23977;53.078;18.248;2023-06-26T12:09:00;4.80;;;3.80;;
38162;SDS011;23977;53.078;18.248;2023-06-26T12:11:30;5.75;;;4.13;;
38162;SDS011;23977;53.078;18.248;2023-06-26T12:13:57;6.20;;;4.18;;
38162;SDS011;23977;53.078;18.248;2023-06-26T12:16:24;6.72;;;4.15;;
38162;SDS011;23977;53.078;18.248;2023-06-26T12:18:50;5.47;;;4.13;;
38162;SDS011;23977;53.078;18.248;2023-06-26T12:24:07;5.22;;;4.00;;
38162;SDS011;23977;53.078;18.248;2023-06-26T12:26:34;5.97;;;4.03;;
38162;SDS011;23977;53.078;18.248;2023-06-26T12:29:07;5.60;;;4.07;;
38162;SDS011;23977;53.078;18.248;2023-06-26T12:31:34;5.30;;;4.20;;
38162;SDS011;23977;53.078;18.248;2023-06-26T12:34:01;6.50;;;4.30;;
38162;SDS011;23977;53.078;18.248;2023-06-26T12:36:28;4.70;;;4.00;;
38162;SDS011;23977;53.078;18.248;2023-06-26T12:38:54;4.93;;;3.90;;
38162;SDS011;23977;53.078;18.248;2023-06-26T12:41:20;5.65;;;4.15;;
38162;SDS011;23977;53.078;18.248;2023-06-26T12:43:49;4.78;;;4.18;;
38162;SDS011;23977;53.078;18.248;2023-06-26T12:46:32;4.82;;;3.83;;
38162;SDS011;23977;53.078;18.248;2023-06-26T12:49:00;7.22;;;4.75;;
38162;SDS011;23977;53.078;18.248;2023-06-26T12:51:26;6.00;;;4.35;;
38162;SDS011;23977;53.078;18.248;2023-06-26T12:53:53;6.10;;;4.05;;
38162;SDS011;23977;53.078;18.248;2023-06-26T12:56:19;6.82;;;4.43;;
38162;SDS011;23977;53.078;18.248;2023-06-26T12:58:45;12.93;;;5.07;;
38162;SDS011;23977;53.078;18.248;2023-06-26T13:01:11;6.72;;;4.40;;
38162;SDS011;23977;53.078;18.248;2023-06-26T13:03:39;6.35;;;4.50;;
38162;SDS011;23977;53.078;18.248;2023-06-26T13:06:05;10.85;;;4.88;;
38162;SDS011;23977;53.078;18.248;2023-06-26T13:08:31;5.80;;;4.90;;
38162;SDS011;23977;53.078;18.248;2023-06-26T13:10:57;7.03;;;4.53;;
38162;SDS011;23977;53.078;18.248;2023-06-26T13:13:22;6.47;;;4.63;;
38162;SDS011;23977;53.078;18.248;2023-06-26T13:15:48;7.45;;;4.95;;
38162;SDS011;23977;53.078;18.248;2023-06-26T13:18:14;8.27;;;4.53;;
38162;SDS011;23977;53.078;18.248;2023-06-26T13:20:40;5.32;;;4.53;;
38162;SDS011;23977;53.078;18.248;2023-06-26T13:23:05;5.25;;;4.13;;
38162;SDS011;23977;53.078;18.248;2023-06-26T13:25:32;5.35;;;4.72;;
38162;SDS011;23977;53.078;18.248;2023-06-26T13:27:58;7.78;;;4.60;;
38162;SDS011;23977;53.078;18.248;2023-06-26T13:30:24;7.72;;;4.70;;
38162;SDS011;23977;53.078;18.248;2023-06-26T13:32:49;7.28;;;4.43;;
38162;SDS011;23977;53.078;18.248;2023-06-26T13:35:15;5.57;;;4.50;;
38162;SDS011;23977;53.078;18.248;2023-06-26T13:37:41;6.25;;;4.50;;
38162;SDS011;23977;53.078;18.248;2023-06-26T13:40:08;5.05;;;4.20;;
38162;SDS011;23977;53.078;18.248;2023-06-26T13:42:34;6.38;;;4.40;;
38162;SDS011;23977;53.078;18.248;2023-06-26T13:45:02;6.00;;;4.38;;
38162;SDS011;23977;53.078;18.248;2023-06-26T13:47:28;6.93;;;4.35;;
38162;SDS011;23977;53.078;18.248;2023-06-26T13:49:54;5.20;;;4.30;;
38162;SDS011;23977;53.078;18.248;2023-06-26T13:52:20;5.55;;;4.10;;
38162;SDS011;23977;53.078;18.248;2023-06-26T13:54:46;8.07;;;4.28;;
38162;SDS011;23977;53.078;18.248;2023-06-26T13:57:12;4.97;;;4.45;;
38162;SDS011;23977;53.078;18.248;2023-06-26T13:59:38;5.75;;;4.20;;
38162;SDS011;23977;53.078;18.248;2023-06-26T14:02:08;5.00;;;4.40;;
38162;SDS011;23977;53.078;18.248;2023-06-26T14:04:33;6.63;;;4.20;;
38162;SDS011;23977;53.078;18.248;2023-06-26T14:06:59;5.47;;;4.20;;
38162;SDS011;23977;53.078;18.248;2023-06-26T14:09:25;4.78;;;4.00;;
38162;SDS011;23977;53.078;18.248;2023-06-26T14:11:51;4.93;;;4.30;;
38162;SDS011;23977;53.078;18.248;2023-06-26T14:14:17;6.00;;;4.20;;
38162;SDS011;23977;53.078;18.248;2023-06-26T14:16:42;5.75;;;4.10;;
38162;SDS011;23977;53.078;18.248;2023-06-26T14:19:08;6.15;;;4.40;;
38162;SDS011;23977;53.078;18.248;2023-06-26T14:21:39;6.50;;;4.18;;
38162;SDS011;23977;53.078;18.248;2023-06-26T14:24:06;7.03;;;4.18;;
38162;SDS011;23977;53.078;18.248;2023-06-26T14:26:31;4.93;;;4.10;;
38162;SDS011;23977;53.078;18.248;2023-06-26T14:28:59;7.30;;;4.32;;
38162;SDS011;23977;53.078;18.248;2023-06-26T14:31:25;6.20;;;4.38;;
38162;SDS011;23977;53.078;18.248;2023-06-26T14:33:52;5.70;;;4.35;;
38162;SDS011;23977;53.078;18.248;2023-06-26T14:36:17;6.55;;;4.30;;
38162;SDS011;23977;53.078;18.248;2023-06-26T14:38:44;5.70;;;3.92;;
38162;SDS011;23977;53.078;18.248;2023-06-26T14:41:11;6.18;;;4.25;;
38162;SDS011;23977;53.078;18.248;2023-06-26T14:43:38;5.85;;;3.90;;
38162;SDS011;23977;53.078;18.248;2023-06-26T14:46:04;6.35;;;4.32;;
38162;SDS011;23977;53.078;18.248;2023-06-26T14:48:30;5.78;;;4.35;;
38162;SDS011;23977;53.078;18.248;2023-06-26T14:50:55;6.00;;;3.92;;
38162;SDS011;23977;53.078;18.248;2023-06-26T14:53:21;5.82;;;4.20;;
38162;SDS011;23977;53.078;18.248;2023-06-26T14:55:46;6.20;;;3.90;;